sensor_id;sensor_type;location;lat;lon;timestamp;P1;durP1;ratioP1;P2;durP2;ratioP2
49320;SDS011;35817;44.498;0.166;2022-12-07T00:00:27;6.88;;;4.93;;
49320;SDS011;35817;44.498;0.166;2022-12-07T00:02:53;9.25;;;4.13;;
49320;SDS011;35817;44.498;0.166;2022-12-07T00:05:18;10.95;;;6.80;;
49320;SDS011;35817;44.498;0.166;2022-12-07T00:07:44;9.00;;;5.65;;
49320;SDS011;35817;44.498;0.166;2022-12-07T00:10:10;8.35;;;4.75;;
49320;SDS011;35817;44.498;0.166;2022-12-07T00:12:35;9.27;;;5.75;;
49320;SDS011;35817;44.498;0.166;2022-12-07T00:15:01;9.20;;;4.60;;
49320;SDS011;35817;44.498;0.166;2022-12-07T00:17:27;8.77;;;5.38;;
49320;SDS011;35817;44.498;0.166;2022-12-07T00:19:53;12.15;;;6.97;;
49320;SDS011;35817;44.498;0.166;2022-12-07T00:22:19;12.90;;;6.05;;
49320;SDS011;35817;44.498;0.166;2022-12-07T00:24:44;7.88;;;5.82;;
49320;SDS011;35817;44.498;0.166;2022-12-07T00:27:10;13.57;;;5.72;;
49320;SDS011;35817;44.498;0.166;2022-12-07T00:29:36;9.43;;;4.93;;
49320;SDS011;35817;44.498;0.166;2022-12-07T00:32:02;10.77;;;6.22;;
49320;SDS011;35817;44.498;0.166;2022-12-07T00:34:29;21.00;;;5.63;;
49320;SDS011;35817;44.498;0.166;2022-12-07T00:36:55;9.82;;;5.28;;
49320;SDS011;35817;44.498;0.166;2022-12-07T00:39:21;12.30;;;5.90;;
49320;SDS011;35817;44.498;0.166;2022-12-07T00:41:46;8.75;;;5.55;;
49320;SDS011;35817;44.498;0.166;2022-12-07T00:44:12;9.65;;;5.70;;
49320;SDS011;35817;44.498;0.166;2022-12-07T00:46:38;14.90;;;7.03;;
49320;SDS011;35817;44.498;0.166;2022-12-07T00:49:04;9.00;;;5.55;;
49320;SDS011;35817;44.498;0.166;2022-12-07T00:51:29;10.05;;;7.28;;
49320;SDS011;35817;44.498;0.166;2022-12-07T00:53:55;8.48;;;5.70;;
49320;SDS011;35817;44.498;0.166;2022-12-07T00:56:22;10.30;;;5.82;;
49320;SDS011;35817;44.498;0.166;2022-12-07T00:59:02;6.80;;;4.68;;
49320;SDS011;35817;44.498;0.166;2022-12-07T01:01:30;8.75;;;5.32;;
49320;SDS011;35817;44.498;0.166;2022-12-07T01:03:57;11.45;;;6.03;;
49320;SDS011;35817;44.498;0.166;2022-12-07T01:06:23;9.85;;;6.15;;
49320;SDS011;35817;44.498;0.166;2022-12-07T01:08:50;9.35;;;6.03;;
49320;SDS011;35817;44.498;0.166;2022-12-07T01:11:17;8.90;;;5.50;;
49320;SDS011;35817;44.498;0.166;2022-12-07T01:13:45;13.55;;;6.10;;
49320;SDS011;35817;44.498;0.166;2022-12-07T01:16:12;8.85;;;6.63;;
49320;SDS011;35817;44.498;0.166;2022-12-07T01:18:39;10.38;;;6.45;;
49320;SDS011;35817;44.498;0.166;2022-12-07T01:21:06;11.07;;;6.07;;
49320;SDS011;35817;44.498;0.166;2022-12-07T01:23:33;8.38;;;5.15;;
49320;SDS011;35817;44.498;0.166;2022-12-07T01:26:02;8.80;;;6.28;;
49320;SDS011;35817;44.498;0.166;2022-12-07T01:28:30;9.45;;;6.80;;
49320;SDS011;35817;44.498;0.166;2022-12-07T01:30:58;10.80;;;7.13;;
49320;SDS011;35817;44.498;0.166;2022-12-07T01:33:27;10.20;;;6.32;;
49320;SDS011;35817;44.498;0.166;2022-12-07T01:36:06;8.80;;;6.63;;
49320;SDS011;35817;44.498;0.166;2022-12-07T01:38:38;9.82;;;6.10;;
49320;SDS011;35817;44.498;0.166;2022-12-07T01:41:04;10.10;;;8.27;;
49320;SDS011;35817;44.498;0.166;2022-12-07T01:43:31;14.27;;;7.60;;
49320;SDS011;35817;44.498;0.166;2022-12-07T01:45:58;12.02;;;6.60;;
49320;SDS011;35817;44.498;0.166;2022-12-07T01:48:26;12.70;;;7.28;;
49320;SDS011;35817;44.498;0.166;2022-12-07T01:50:56;12.38;;;7.85;;
49320;SDS011;35817;44.498;0.166;2022-12-07T01:53:28;10.43;;;8.25;;
49320;SDS011;35817;44.498;0.166;2022-12-07T01:55:55;9.23;;;6.82;;
49320;SDS011;35817;44.498;0.166;2022-12-07T01:58:23;11.38;;;6.70;;
49320;SDS011;35817;44.498;0.166;2022-12-07T02:00:50;13.10;;;6.65;;
49320;SDS011;35817;44.498;0.166;2022-12-07T02:03:24;12.18;;;6.75;;
49320;SDS011;35817;44.498;0.166;2022-12-07T02:05:56;13.25;;;7.53;;
49320;SDS011;35817;44.498;0.166;2022-12-07T02:08:24;12.98;;;8.23;;
49320;SDS011;35817;44.498;0.166;2022-12-07T02:10:50;9.82;;;5.55;;
49320;SDS011;35817;44.498;0.166;2022-12-07T02:13:20;12.63;;;7.32;;
49320;SDS011;35817;44.498;0.166;2022-12-07T02:16:02;11.90;;;7.03;;
49320;SDS011;35817;44.498;0.166;2022-12-07T02:40:22;15.88;;;8.60;;
49320;SDS011;35817;44.498;0.166;2022-12-07T02:42:58;13.73;;;9.20;;
49320;SDS011;35817;44.498;0.166;2022-12-07T02:45:34;11.00;;;7.07;;
49320;SDS011;35817;44.498;0.166;2022-12-07T02:48:02;12.50;;;8.00;;
49320;SDS011;35817;44.498;0.166;2022-12-07T02:50:30;14.95;;;8.13;;
49320;SDS011;35817;44.498;0.166;2022-12-07T02:52:55;12.80;;;7.78;;
49320;SDS011;35817;44.498;0.166;2022-12-07T02:55:23;16.77;;;6.90;;
49320;SDS011;35817;44.498;0.166;2022-12-07T03:00:44;11.65;;;8.27;;
49320;SDS011;35817;44.498;0.166;2022-12-07T03:03:19;12.52;;;7.85;;
49320;SDS011;35817;44.498;0.166;2022-12-07T03:05:55;11.38;;;8.52;;
49320;SDS011;35817;44.498;0.166;2022-12-07T03:11:13;13.02;;;7.28;;
49320;SDS011;35817;44.498;0.166;2022-12-07T08:23:56;24.25;;;13.18;;
49320;SDS011;35817;44.498;0.166;2022-12-07T08:28:48;20.27;;;13.23;;
49320;SDS011;35817;44.498;0.166;2022-12-07T08:31:15;19.60;;;13.77;;
49320;SDS011;35817;44.498;0.166;2022-12-07T08:33:44;16.45;;;14.55;;
49320;SDS011;35817;44.498;0.166;2022-12-07T08:36:12;19.63;;;12.48;;
49320;SDS011;35817;44.498;0.166;2022-12-07T08:38:39;18.95;;;9.25;;
49320;SDS011;35817;44.498;0.166;2022-12-07T08:41:06;14.85;;;8.30;;
49320;SDS011;35817;44.498;0.166;2022-12-07T08:43:32;10.38;;;7.82;;
49320;SDS011;35817;44.498;0.166;2022-12-07T08:48:49;13.18;;;7.93;;
49320;SDS011;35817;44.498;0.166;2022-12-07T08:51:20;11.98;;;7.03;;
49320;SDS011;35817;44.498;0.166;2022-12-07T08:58:39;18.52;;;11.38;;
49320;SDS011;35817;44.498;0.166;2022-12-07T09:01:06;16.17;;;7.95;;
49320;SDS011;35817;44.498;0.166;2022-12-07T09:03:32;11.13;;;7.30;;
49320;SDS011;35817;44.498;0.166;2022-12-07T09:05:58;10.90;;;6.65;;
49320;SDS011;35817;44.498;0.166;2022-12-07T09:08:26;13.00;;;8.10;;
49320;SDS011;35817;44.498;0.166;2022-12-07T09:10:56;12.73;;;8.10;;
49320;SDS011;35817;44.498;0.166;2022-12-07T09:13:22;11.55;;;7.88;;
49320;SDS011;35817;44.498;0.166;2022-12-07T09:15:47;15.40;;;8.68;;
49320;SDS011;35817;44.498;0.166;2022-12-07T09:18:24;13.55;;;8.73;;
49320;SDS011;35817;44.498;0.166;2022-12-07T09:21:19;12.90;;;8.88;;
49320;SDS011;35817;44.498;0.166;2022-12-07T09:23:56;17.52;;;10.63;;
49320;SDS011;35817;44.498;0.166;2022-12-07T09:26:27;13.70;;;8.63;;
49320;SDS011;35817;44.498;0.166;2022-12-07T09:32:39;11.75;;;7.90;;
49320;SDS011;35817;44.498;0.166;2022-12-07T09:35:08;14.20;;;8.30;;
49320;SDS011;35817;44.498;0.166;2022-12-07T09:37:34;9.63;;;8.30;;
49320;SDS011;35817;44.498;0.166;2022-12-07T09:40:02;13.30;;;10.48;;
49320;SDS011;35817;44.498;0.166;2022-12-07T09:46:03;12.18;;;8.85;;
49320;SDS011;35817;44.498;0.166;2022-12-07T09:52:20;11.32;;;7.55;;
49320;SDS011;35817;44.498;0.166;2022-12-07T09:54:52;13.68;;;8.95;;
49320;SDS011;35817;44.498;0.166;2022-12-07T09:57:32;11.27;;;9.00;;
49320;SDS011;35817;44.498;0.166;2022-12-07T10:00:13;12.43;;;8.95;;
49320;SDS011;35817;44.498;0.166;2022-12-07T10:03:08;11.13;;;8.82;;
49320;SDS011;35817;44.498;0.166;2022-12-07T10:05:39;15.30;;;10.65;;
49320;SDS011;35817;44.498;0.166;2022-12-07T10:08:16;11.02;;;9.10;;
49320;SDS011;35817;44.498;0.166;2022-12-07T10:10:46;12.10;;;9.45;;
49320;SDS011;35817;44.498;0.166;2022-12-07T10:13:20;11.98;;;10.00;;
49320;SDS011;35817;44.498;0.166;2022-12-07T10:16:05;11.82;;;9.57;;
49320;SDS011;35817;44.498;0.166;2022-12-07T10:18:37;14.93;;;9.88;;
49320;SDS011;35817;44.498;0.166;2022-12-07T10:21:26;11.98;;;9.38;;
49320;SDS011;35817;44.498;0.166;2022-12-07T10:26:48;9.95;;;8.52;;
49320;SDS011;35817;44.498;0.166;2022-12-07T10:29:27;14.00;;;10.43;;
49320;SDS011;35817;44.498;0.166;2022-12-07T10:32:02;13.18;;;10.50;;
49320;SDS011;35817;44.498;0.166;2022-12-07T10:34:49;10.63;;;9.35;;
49320;SDS011;35817;44.498;0.166;2022-12-07T10:39:45;13.35;;;9.82;;
49320;SDS011;35817;44.498;0.166;2022-12-07T10:44:44;11.50;;;9.98;;
49320;SDS011;35817;44.498;0.166;2022-12-07T10:47:21;12.88;;;8.98;;
49320;SDS011;35817;44.498;0.166;2022-12-07T10:50:04;14.27;;;10.27;;
49320;SDS011;35817;44.498;0.166;2022-12-07T11:00:32;11.85;;;9.20;;
